Time;durP1;ratioP1;P1;durP2;ratioP2;P2;SDS_P1;SDS_P2;PMS_P1;PMS_P2;Temp;Humidity;BMP_temperature;BMP_pressure;BME280_temperature;BME280_humidity;BME280_pressure;Samples;Min_cycle;Max_cycle;Signal;HPM_P1;HPM_P2
2022/03/16 00:01:00;;;;;;;15.50;7.80;;;;;;;5.85;69.13;101974.81;5109046;27;20420;-70
2022/03/16 00:03:28;;;;;;;21.88;9.57;;;;;;;5.84;70.86;101972.22;5108751;27;20051;-69
2022/03/16 00:05:54;;;;;;;23.30;10.70;;;;;;;5.92;71.75;101980.84;5109450;27;20047;-70
2022/03/16 00:08:21;;;;;;;27.48;12.45;;;;;;;6.01;72.81;101982.47;5110133;27;20071;-70
2022/03/16 00:10:47;;;;;;;34.17;13.20;;;;;;;5.87;77.71;101995.69;5108602;27;20047;-70
2022/03/16 00:13:13;;;;;;;35.70;13.52;;;;;;;6.38;77.28;101999.31;5108230;27;20423;-70
2022/03/16 00:15:40;;;;;;;35.20;14.52;;;;;;;6.18;77.38;102003.94;5105969;27;20124;-70
2022/03/16 00:18:06;;;;;;;30.98;14.02;;;;;;;5.80;78.09;102010.44;5108901;27;20071;-70
2022/03/16 00:20:34;;;;;;;31.02;13.27;;;;;;;5.95;77.55;102006.81;5108410;27;20139;-70
2022/03/16 00:23:00;;;;;;;32.05;13.07;;;;;;;5.92;77.03;102021.63;5109132;27;20124;-70
2022/03/16 00:25:26;;;;;;;33.92;14.48;;;;;;;5.86;76.49;102017.38;5108917;27;20112;-70
2022/03/16 00:27:53;;;;;;;27.52;12.55;;;;;;;6.25;75.56;102016.84;5108201;27;20073;-69
2022/03/16 00:30:19;;;;;;;33.80;12.98;;;;;;;6.13;76.49;102026.59;5108949;28;20052;-70
2022/03/16 00:32:46;;;;;;;28.77;13.68;;;;;;;6.06;76.70;102020.56;5109263;28;20079;-70
2022/03/16 00:35:12;;;;;;;27.45;12.63;;;;;;;5.94;75.37;102020.75;5108964;28;20051;-70
2022/03/16 00:37:40;;;;;;;26.08;11.40;;;;;;;6.05;74.88;102028.41;5109199;27;20051;-69
2022/03/16 00:40:09;;;;;;;25.67;12.27;;;;;;;6.09;74.48;102030.97;5107757;27;20064;-70
2022/03/16 00:42:35;;;;;;;28.67;12.52;;;;;;;6.23;73.83;102029.03;5108655;27;20074;-69
2022/03/16 00:45:01;;;;;;;26.38;10.70;;;;;;;6.25;73.39;102034.22;5106246;28;20071;-69
2022/03/16 00:47:28;;;;;;;29.67;12.65;;;;;;;6.12;73.89;102038.75;5104598;28;20071;-70
2022/03/16 00:49:54;;;;;;;24.77;12.73;;;;;;;6.12;73.64;102036.13;5107931;27;20762;-70
2022/03/16 00:52:20;;;;;;;22.13;11.57;;;;;;;6.02;73.62;102034.53;5108304;28;20051;-70
2022/03/16 00:54:48;;;;;;;26.00;11.65;;;;;;;5.96;74.70;102049.34;5108364;27;20116;-70
2022/03/16 00:57:15;;;;;;;32.00;12.15;;;;;;;5.93;74.66;102044.19;5108274;27;20055;-69
2022/03/16 00:59:41;;;;;;;25.02;11.25;;;;;;;5.97;74.20;102045.88;5106179;27;20077;-70
2022/03/16 01:02:08;;;;;;;25.10;11.30;;;;;;;6.04;73.12;102051.00;5108409;28;20043;-69
2022/03/16 01:04:34;;;;;;;25.13;11.80;;;;;;;6.02;72.53;102055.38;5108018;28;20071;-69
2022/03/16 01:07:01;;;;;;;26.58;11.27;;;;;;;5.87;72.59;102056.38;5108314;28;20067;-69
2022/03/16 01:09:27;;;;;;;26.63;11.63;;;;;;;6.03;72.63;102061.41;5098682;28;20140;-69
2022/03/16 01:11:55;;;;;;;26.83;12.18;;;;;;;6.02;73.17;102054.50;5107356;28;20091;-69
2022/03/16 01:14:21;;;;;;;26.33;11.13;;;;;;;5.99;73.08;102059.72;5095841;28;20087;-69
2022/03/16 01:16:47;;;;;;;22.33;10.05;;;;;;;5.81;72.96;102064.22;5109278;28;20136;-69
2022/03/16 01:19:14;;;;;;;22.02;10.15;;;;;;;5.83;72.35;102074.63;5109152;28;20082;-70
2022/03/16 01:21:41;;;;;;;22.83;10.40;;;;;;;5.70;72.06;102079.09;5103585;28;20071;-70
2022/03/16 01:24:08;;;;;;;21.92;9.27;;;;;;;5.54;72.53;102082.75;5109882;27;20079;-70
2022/03/16 01:26:34;;;;;;;26.20;10.95;;;;;;;5.51;74.33;102069.75;5110225;28;20072;-70
2022/03/16 01:29:02;;;;;;;19.58;10.20;;;;;;;5.34;73.21;102074.25;5109460;27;20043;-70
2022/03/16 01:31:28;;;;;;;25.90;10.98;;;;;;;5.30;72.97;102075.16;5109077;28;20522;-70
2022/03/16 01:33:55;;;;;;;29.13;12.07;;;;;;;5.24;73.92;102078.69;5106869;28;20100;-70
2022/03/16 01:36:21;;;;;;;27.75;11.93;;;;;;;5.49;73.39;102079.31;5109951;27;20487;-69
2022/03/16 01:38:48;;;;;;;25.90;12.07;;;;;;;5.37;72.43;102074.22;5108734;27;20116;-70
2022/03/16 01:41:14;;;;;;;27.48;11.52;;;;;;;5.18;73.84;102086.53;5109523;28;20071;-70
2022/03/16 01:43:41;;;;;;;28.58;12.60;;;;;;;5.13;73.73;102083.13;5094137;28;20066;-70
2022/03/16 01:46:09;;;;;;;34.05;12.82;;;;;;;5.53;73.25;102090.56;5108832;28;20105;-70
2022/03/16 01:48:35;;;;;;;26.33;12.27;;;;;;;5.33;74.31;102090.72;5107498;27;20075;-70
2022/03/16 01:51:02;;;;;;;34.28;13.80;;;;;;;5.32;74.77;102092.47;5107180;27;20036;-70
2022/03/16 01:53:28;;;;;;;32.30;12.77;;;;;;;5.42;74.55;102106.28;5109767;28;20423;-70
2022/03/16 01:55:55;;;;;;;27.92;12.48;;;;;;;5.40;74.42;102105.41;5108523;27;20836;-70
2022/03/16 01:58:21;;;;;;;33.72;13.38;;;;;;;5.45;74.85;102103.63;5107801;28;20488;-70
2022/03/16 02:00:48;;;;;;;30.02;13.23;;;;;;;5.39;75.95;102109.75;5109069;28;20040;-70
2022/03/16 02:03:15;;;;;;;30.85;13.10;;;;;;;5.29;76.37;102108.09;5108234;28;20483;-70
2022/03/16 02:05:42;;;;;;;27.88;13.52;;;;;;;5.48;75.85;102111.41;5089234;28;20064;-70
2022/03/16 02:08:10;;;;;;;27.17;12.50;;;;;;;5.78;74.45;102108.50;5069739;28;20068;-70
2022/03/16 02:10:37;;;;;;;34.10;13.65;;;;;;;5.67;75.15;102112.97;5078997;28;20048;-70
2022/03/16 02:13:08;;;;;;;33.58;14.45;;;;;;;5.74;75.36;102113.75;5085932;28;20048;-70
2022/03/16 02:15:34;;;;;;;32.30;13.77;;;;;;;5.87;74.61;102121.44;5090373;28;20068;-70
2022/03/16 02:18:01;;;;;;;28.45;12.48;;;;;;;6.26;73.21;102124.50;5075042;28;20048;-70
2022/03/16 02:20:28;;;;;;;31.85;13.68;;;;;;;6.09;73.69;102129.06;5086677;28;20068;-70
2022/03/16 02:22:57;;;;;;;31.55;13.60;;;;;;;6.01;73.99;102133.47;5079209;28;20072;-70
2022/03/16 02:25:25;;;;;;;33.10;13.25;;;;;;;6.01;74.29;102134.34;5098076;28;20132;-70
2022/03/16 02:27:52;;;;;;;35.80;14.15;;;;;;;6.05;74.10;102136.03;5106430;28;20043;-70
2022/03/16 02:30:19;;;;;;;35.33;14.48;;;;;;;5.88;74.55;102137.94;5105972;28;20047;-70
2022/03/16 02:32:45;;;;;;;31.35;13.80;;;;;;;5.75;75.62;102139.78;5106601;28;20093;-70
2022/03/16 02:35:12;;;;;;;36.28;15.25;;;;;;;5.74;75.25;102156.28;5098222;28;20048;-70
2022/03/16 02:37:39;;;;;;;32.08;15.15;;;;;;;5.73;75.27;102146.72;5106331;28;20060;-71
2022/03/16 02:40:09;;;;;;;33.78;14.23;;;;;;;5.72;74.94;102152.84;5105589;28;20051;-71
2022/03/16 02:42:37;;;;;;;32.50;14.27;;;;;;;5.73;74.30;102153.66;5098054;28;20043;-71
2022/03/16 02:45:03;;;;;;;32.97;14.30;;;;;;;5.66;74.63;102150.25;5105358;28;20088;-71
2022/03/16 02:47:30;;;;;;;36.25;14.55;;;;;;;5.58;74.69;102154.66;5105019;28;20089;-71
2022/03/16 02:49:57;;;;;;;32.42;13.90;;;;;;;5.66;74.50;102170.22;5087844;28;20202;-71
2022/03/16 02:52:23;;;;;;;29.60;13.75;;;;;;;5.69;74.16;102168.44;5103158;28;20050;-70
2022/03/16 02:54:49;;;;;;;33.10;14.43;;;;;;;5.77;73.77;102176.19;5105098;28;20144;-70
2022/03/16 02:57:17;;;;;;;31.10;13.60;;;;;;;5.70;73.95;102179.72;5108243;28;20043;-71
2022/03/16 02:59:44;;;;;;;33.10;14.15;;;;;;;5.49;74.39;102172.09;5108732;28;20048;-71
2022/03/16 03:02:10;;;;;;;30.55;13.65;;;;;;;5.31;74.70;102183.53;5108274;28;20465;-71
2022/03/16 03:04:37;;;;;;;39.95;15.48;;;;;;;5.10;74.53;102189.72;5099990;28;20040;-71
2022/03/16 03:07:05;;;;;;;30.60;13.75;;;;;;;5.21;74.06;102192.28;5107985;28;20070;-71
2022/03/16 03:09:31;;;;;;;28.42;13.98;;;;;;;5.20;73.92;102195.72;5100458;28;20408;-71
2022/03/16 03:11:59;;;;;;;34.25;15.40;;;;;;;5.27;73.52;102200.03;5103130;28;20075;-71
2022/03/16 03:14:27;;;;;;;35.42;14.60;;;;;;;5.45;72.72;102196.41;5100785;28;20370;-71
2022/03/16 03:16:53;;;;;;;39.15;16.23;;;;;;;5.31;73.20;102197.41;5098764;28;20393;-71
2022/03/16 03:19:21;;;;;;;39.22;15.13;;;;;;;5.11;74.10;102206.19;5106514;28;20075;-71
2022/03/16 03:21:47;;;;;;;35.13;15.10;;;;;;;4.74;76.30;102205.50;5105885;28;20043;-71
2022/03/16 03:24:13;;;;;;;40.13;16.60;;;;;;;4.82;76.20;102214.13;5111963;28;20067;-71
2022/03/16 03:26:40;;;;;;;35.60;14.95;;;;;;;4.65;76.58;102202.97;5112331;28;20142;-71
2022/03/16 03:29:07;;;;;;;36.50;16.05;;;;;;;4.61;76.99;102220.28;5109110;28;21819;-71
2022/03/16 03:31:35;;;;;;;36.85;15.10;;;;;;;4.41;77.21;102224.69;5102909;28;20069;-71
2022/03/16 03:34:01;;;;;;;35.70;15.38;;;;;;;4.52;76.67;102227.22;5103033;28;20047;-71
2022/03/16 03:36:27;;;;;;;35.40;15.35;;;;;;;4.51;76.57;102223.78;5096858;28;20128;-71
2022/03/16 03:38:54;;;;;;;36.38;15.18;;;;;;;4.51;76.55;102222.94;5108821;28;20093;-71
2022/03/16 03:41:20;;;;;;;41.95;15.90;;;;;;;4.43;77.48;102226.38;5103525;28;20040;-71
2022/03/16 03:43:47;;;;;;;42.00;16.83;;;;;;;4.62;76.31;102224.59;5111315;28;20077;-71
2022/03/16 03:46:13;;;;;;;39.42;16.02;;;;;;;4.68;75.29;102226.31;5103544;28;20484;-71
2022/03/16 03:48:41;;;;;;;28.92;14.98;;;;;;;4.71;74.73;102227.19;5101407;28;20051;-71
2022/03/16 03:51:07;;;;;;;31.73;14.82;;;;;;;4.71;74.34;102228.91;5100972;28;20048;-70
2022/03/16 03:53:34;;;;;;;34.72;14.80;;;;;;;4.78;73.40;102234.06;5096303;28;20724;-71
2022/03/16 03:56:00;;;;;;;35.10;15.43;;;;;;;4.58;73.93;102233.28;5111221;28;20453;-71
2022/03/16 03:58:27;;;;;;;40.78;16.08;;;;;;;4.63;73.83;102239.31;5100433;28;20475;-71
2022/03/16 04:00:55;;;;;;;37.35;15.23;;;;;;;4.39;74.41;102242.00;5109944;28;20140;-70
2022/03/16 04:03:21;;;;;;;36.00;15.50;;;;;;;4.28;74.08;102229.06;5107301;28;20048;-70
2022/03/16 04:05:49;;;;;;;34.95;15.30;;;;;;;4.52;73.33;102229.84;5104890;28;20075;-71
2022/03/16 04:08:15;;;;;;;35.70;15.82;;;;;;;4.42;74.43;102231.59;5099791;28;20048;-71
2022/03/16 04:10:41;;;;;;;33.35;15.20;;;;;;;4.49;74.21;102230.72;5102021;28;20055;-71
2022/03/16 04:13:08;;;;;;;35.33;15.35;;;;;;;4.51;73.47;102230.72;5094969;28;20048;-71
2022/03/16 04:15:34;;;;;;;31.30;15.30;;;;;;;4.49;72.73;102229.84;5104215;28;20040;-71
2022/03/16 04:18:01;;;;;;;34.40;14.68;;;;;;;4.45;72.14;102222.94;5095861;28;20595;-71
2022/03/16 04:20:27;;;;;;;29.98;13.63;;;;;;;4.41;71.59;102222.06;5102219;28;20090;-71
2022/03/16 04:22:55;;;;;;;28.77;13.27;;;;;;;4.31;71.42;102231.63;5090969;28;20109;-71
2022/03/16 04:25:21;;;;;;;37.28;15.07;;;;;;;4.21;71.64;102224.72;5090686;28;20120;-71
2022/03/16 04:27:47;;;;;;;35.17;16.00;;;;;;;4.31;71.91;102226.44;5090691;28;20040;-71
2022/03/16 04:30:14;;;;;;;30.15;14.55;;;;;;;4.29;71.88;102222.97;5090434;28;20449;-71
2022/03/16 04:32:40;;;;;;;31.70;14.10;;;;;;;4.16;72.67;102229.06;5097238;28;20483;-71
2022/03/16 04:35:07;;;;;;;35.53;14.43;;;;;;;3.97;74.48;102227.34;5101877;28;20407;-71
2022/03/16 04:37:35;;;;;;;41.22;15.02;;;;;;;4.04;74.38;102223.03;5110782;28;20067;-71
2022/03/16 04:40:03;;;;;;;33.45;14.07;;;;;;;4.02;74.42;102219.56;5110271;28;20427;-71
2022/03/16 04:42:30;;;;;;;40.42;14.98;;;;;;;4.11;74.36;102225.59;5102492;28;20571;-71
2022/03/16 04:44:56;;;;;;;37.85;14.77;;;;;;;4.14;74.41;102223.00;5109739;28;20144;-70
2022/03/16 04:47:22;;;;;;;32.15;13.40;;;;;;;4.15;74.53;102229.06;5093512;28;20492;-70
2022/03/16 04:49:49;;;;;;;29.65;14.15;;;;;;;4.09;73.77;102227.34;5098699;28;20063;-71
2022/03/16 04:52:15;;;;;;;27.63;12.98;;;;;;;4.12;73.16;102234.25;5099920;28;20116;-71
2022/03/16 04:54:41;;;;;;;28.20;13.18;;;;;;;4.09;73.27;102227.34;5110627;28;20497;-71
2022/03/16 04:57:09;;;;;;;25.70;11.90;;;;;;;4.01;73.32;102230.81;5109981;28;20093;-71
2022/03/16 04:59:35;;;;;;;27.98;12.90;;;;;;;4.00;73.11;102229.06;5109408;28;20125;-71
2022/03/16 05:02:02;;;;;;;26.85;12.70;;;;;;;3.99;73.31;102236.00;5110063;28;20067;-71
2022/03/16 05:04:28;;;;;;;29.67;13.32;;;;;;;3.92;74.63;102242.06;5101261;28;20091;-71
2022/03/16 05:06:55;;;;;;;30.30;13.00;;;;;;;3.70;75.61;102229.94;5107613;28;20040;-70
2022/03/16 05:09:21;;;;;;;28.48;13.82;;;;;;;3.72;75.21;102228.25;5109460;28;20096;-70
2022/03/16 05:11:47;;;;;;;54.10;12.95;;;;;;;3.91;74.63;102235.16;5098888;28;20048;-70
2022/03/16 05:14:15;;;;;;;26.17;12.30;;;;;;;3.97;73.73;102236.88;5110194;28;20055;-70
2022/03/16 05:16:41;;;;;;;29.70;12.20;;;;;;;3.74;75.18;102240.34;5101668;28;20044;-70
2022/03/16 05:19:07;;;;;;;23.60;11.65;;;;;;;3.61;76.04;102235.16;5103988;28;20488;-71
2022/03/16 05:21:34;;;;;;;25.60;11.85;;;;;;;3.60;76.60;102238.59;5110190;28;20635;-70
2022/03/16 05:24:00;;;;;;;19.77;11.02;;;;;;;3.46;77.07;102241.19;5105526;28;20035;-70
2022/03/16 05:26:27;;;;;;;24.48;12.23;;;;;;;3.34;77.50;102246.34;5109715;28;20047;-71
2022/03/16 05:28:53;;;;;;;22.85;11.90;;;;;;;3.04;76.96;102254.03;5108064;28;20039;-71
2022/03/16 05:31:21;;;;;;;22.92;11.13;;;;;;;3.16;76.94;102251.50;5102312;28;20679;-71
2022/03/16 05:33:48;;;;;;;21.23;10.80;;;;;;;3.03;77.28;102247.97;5097519;28;20040;-71
2022/03/16 05:36:14;;;;;;;20.73;11.20;;;;;;;3.01;77.86;102246.25;5103852;28;20039;-71
2022/03/16 05:38:41;;;;;;;23.80;12.25;;;;;;;3.14;77.86;102248.03;5108209;28;20451;-71
2022/03/16 05:41:07;;;;;;;46.05;12.63;;;;;;;2.96;78.56;102251.41;5100796;28;20052;-71
2022/03/16 05:43:34;;;;;;;31.40;11.35;;;;;;;3.18;77.87;102250.63;5091074;28;20048;-70
2022/03/16 05:46:01;;;;;;;40.58;9.63;;;;;;;3.30;77.42;102257.56;5102669;28;20044;-71
2022/03/16 05:48:29;;;;;;;21.30;9.98;;;;;;;3.37;76.75;102259.31;5100235;28;20048;-71
2022/03/16 05:50:55;;;;;;;22.92;11.05;;;;;;;3.26;77.42;102255.81;5091118;28;20071;-71
2022/03/16 05:53:21;;;;;;;23.15;10.38;;;;;;;3.16;77.96;102259.25;5089374;28;20040;-71
2022/03/16 05:55:48;;;;;;;20.42;9.15;;;;;;;2.99;77.01;102259.22;5089261;28;20048;-71
2022/03/16 05:58:14;;;;;;;18.13;9.18;;;;;;;3.08;76.49;102258.38;5109686;28;20055;-71
2022/03/16 06:00:42;;;;;;;16.42;9.35;;;;;;;3.14;76.86;102264.44;5108010;28;20069;-71
2022/03/16 06:03:10;;;;;;;17.33;8.63;;;;;;;2.91;78.41;102269.56;5109360;28;20047;-71
2022/03/16 06:05:38;;;;;;;18.23;8.82;;;;;;;3.21;78.06;102266.22;5108977;28;20138;-71
2022/03/16 06:08:05;;;;;;;17.80;9.70;;;;;;;3.58;77.43;102272.34;5096064;28;20067;-71
2022/03/16 06:10:31;;;;;;;20.10;9.57;;;;;;;3.77;77.62;102263.69;5098843;28;20064;-71
2022/03/16 06:13:01;;;;;;;21.92;10.85;;;;;;;4.47;76.62;102266.22;5090944;28;20097;-71
2022/03/16 06:15:29;;;;;;;19.80;10.52;;;;;;;4.78;74.84;102270.44;5106575;28;20143;-71
2022/03/16 06:17:57;;;;;;;28.33;11.20;;;;;;;5.03;74.45;102257.34;5093664;28;20484;-71
2022/03/16 06:20:23;;;;;;;20.08;10.13;;;;;;;5.39;73.71;102268.41;5108047;28;20043;-71
2022/03/16 06:22:51;;;;;;;20.70;10.13;;;;;;;5.42;72.99;102271.88;5109340;28;20063;-71
2022/03/16 06:25:17;;;;;;;19.55;10.75;;;;;;;5.21;74.11;102280.69;5108908;28;20052;-71
2022/03/16 06:27:44;;;;;;;20.65;10.68;;;;;;;5.54;74.27;102275.28;5108992;28;20067;-71
2022/03/16 06:30:11;;;;;;;22.73;11.20;;;;;;;5.62;74.20;102273.47;5107513;28;20071;-71
2022/03/16 06:32:38;;;;;;;19.65;10.05;;;;;;;5.64;73.65;102276.94;5109213;28;20560;-70
2022/03/16 06:35:06;;;;;;;23.33;11.00;;;;;;;5.73;73.68;102281.19;5108891;28;20465;-70
2022/03/16 06:37:32;;;;;;;26.13;11.77;;;;;;;6.36;72.56;102270.25;5108288;28;20393;-70
2022/03/16 06:40:00;;;;;;;21.02;10.60;;;;;;;6.49;71.85;102284.03;5107897;28;20100;-70
2022/03/16 06:42:27;;;;;;;22.83;10.40;;;;;;;6.39;72.15;102286.75;5101599;28;20059;-70
2022/03/16 06:44:53;;;;;;;22.65;11.43;;;;;;;6.99;71.95;102287.81;5111138;28;20047;-68
2022/03/16 06:47:19;;;;;;;25.45;11.90;;;;;;;7.63;69.77;102288.66;5096924;28;20097;-68
2022/03/16 06:49:46;;;;;;;25.23;11.68;;;;;;;7.84;70.10;102287.47;5111834;28;20442;-70
2022/03/16 06:52:13;;;;;;;19.63;11.52;;;;;;;8.40;69.02;102289.16;5112370;28;20410;-70
2022/03/16 06:54:39;;;;;;;23.98;11.13;;;;;;;8.77;67.36;102292.81;5103740;28;20047;-69
2022/03/16 06:57:07;;;;;;;23.85;11.20;;;;;;;8.96;66.21;102292.44;5110164;28;20048;-69
2022/03/16 06:59:33;;;;;;;22.35;11.07;;;;;;;9.11;67.00;102302.59;5108726;28;20407;-69
2022/03/16 07:02:00;;;;;;;22.67;11.68;;;;;;;9.34;66.14;102297.72;5111154;28;20089;-69
2022/03/16 07:04:26;;;;;;;20.10;10.25;;;;;;;9.13;66.81;102301.66;5109398;28;20043;-70
2022/03/16 07:06:52;;;;;;;21.80;10.23;;;;;;;9.59;66.31;102303.28;5110243;28;20043;-70
2022/03/16 07:09:19;;;;;;;22.33;10.60;;;;;;;9.48;68.04;102300.91;5109602;28;20117;-70
2022/03/16 07:11:45;;;;;;;23.40;13.00;;;;;;;9.75;66.39;102300.25;5106146;28;20067;-70
2022/03/16 07:16:57;;;;;;;20.90;11.80;;;;;;;10.93;60.35;102308.59;5103736;28;20047;-70
2022/03/16 07:19:23;;;;;;;18.13;11.35;;;;;;;10.86;62.03;102310.56;5104960;28;20067;-70
2022/03/16 07:21:49;;;;;;;22.00;11.75;;;;;;;11.61;58.57;102312.66;5109494;28;20043;-70
2022/03/16 07:24:16;;;;;;;23.15;12.38;;;;;;;10.73;60.81;102312.63;5110249;28;20043;-70
2022/03/16 07:26:42;;;;;;;20.55;12.02;;;;;;;10.84;61.84;102309.72;5098792;28;20093;-71
2022/03/16 07:29:09;;;;;;;21.77;12.45;;;;;;;11.07;62.50;102314.31;5106158;28;20122;-71
2022/03/16 07:31:37;;;;;;;23.55;11.77;;;;;;;11.03;61.24;102308.28;5098649;28;20109;-71
2022/03/16 07:34:03;;;;;;;20.02;10.77;;;;;;;10.84;61.24;102316.72;5103543;28;20100;-71
2022/03/16 07:36:31;;;;;;;21.77;11.63;;;;;;;11.66;61.31;102309.91;5091743;28;20458;-71
2022/03/16 07:38:58;;;;;;;24.02;13.07;;;;;;;12.54;56.39;102307.84;5088155;28;20093;-70
2022/03/16 07:41:24;;;;;;;18.70;11.60;;;;;;;12.66;55.96;102310.06;5106716;28;20077;-70
2022/03/16 07:43:50;;;;;;;21.80;12.20;;;;;;;13.34;54.61;102304.03;5105408;28;20039;-71
2022/03/16 07:46:17;;;;;;;20.98;10.48;;;;;;;12.61;57.39;102314.63;5105154;28;20071;-70
2022/03/16 07:48:45;;;;;;;23.98;10.63;;;;;;;12.43;57.69;102317.03;5102852;28;20059;-70
2022/03/16 07:51:12;;;;;;;17.63;10.27;;;;;;;12.56;57.03;102315.69;5101802;28;20051;-70
2022/03/16 07:53:39;;;;;;;19.55;10.73;;;;;;;12.29;59.24;102321.91;5108426;28;20051;-70
2022/03/16 07:56:05;;;;;;;20.38;10.60;;;;;;;12.32;60.12;102322.66;5107961;28;20358;-70
2022/03/16 07:58:33;;;;;;;22.23;10.50;;;;;;;13.74;54.70;102326.22;5088244;28;20532;-70
2022/03/16 08:00:59;;;;;;;24.55;10.07;;;;;;;13.49;55.72;102327.16;5090578;28;20130;-70
2022/03/16 08:03:26;;;;;;;19.13;10.23;;;;;;;13.78;54.81;102325.19;5097220;28;20089;-71
2022/03/16 08:05:54;;;;;;;15.98;9.00;;;;;;;13.80;53.43;102326.81;5095874;28;20051;-66
2022/03/16 08:08:20;;;;;;;17.42;9.65;;;;;;;14.06;53.74;102328.41;5102350;28;20139;-66
2022/03/16 08:10:46;;;;;;;18.88;10.57;;;;;;;13.89;55.12;102342.28;5102157;28;20040;-66
2022/03/16 08:13:13;;;;;;;17.42;10.23;;;;;;;13.71;55.03;102347.44;5106834;28;20511;-67
2022/03/16 08:15:39;;;;;;;19.42;9.82;;;;;;;12.89;58.37;102347.88;5099952;28;20224;-67
2022/03/16 08:18:05;;;;;;;23.55;9.95;;;;;;;13.45;57.50;102345.81;5100914;28;20103;-67
2022/03/16 08:20:32;;;;;;;18.30;9.80;;;;;;;13.05;57.21;102346.38;5110237;28;20059;-67
2022/03/16 08:23:00;;;;;;;17.15;9.80;;;;;;;12.94;58.38;102345.91;5109833;28;21277;-67
2022/03/16 08:25:26;;;;;;;18.58;11.10;;;;;;;12.28;61.18;102357.84;5110118;28;20071;-67
2022/03/16 08:27:53;;;;;;;20.02;9.85;;;;;;;12.72;60.06;102363.38;5109059;28;20384;-68
2022/03/16 08:30:19;;;;;;;19.38;10.30;;;;;;;12.49;63.96;102354.50;5110120;28;20047;-66
2022/03/16 08:32:46;;;;;;;19.20;10.30;;;;;;;12.83;61.39;102358.59;5111138;28;20067;-68
2022/03/16 08:35:12;;;;;;;19.63;10.18;;;;;;;13.86;58.16;102345.03;5098326;28;20046;-67
2022/03/16 08:37:39;;;;;;;18.25;8.98;;;;;;;14.54;56.44;102351.91;5107334;28;20047;-67
2022/03/16 08:40:08;;;;;;;16.50;9.27;;;;;;;15.23;54.26;102355.00;5103920;28;20101;-67
2022/03/16 08:42:36;;;;;;;16.83;9.40;;;;;;;14.76;57.99;102352.72;5103578;28;20108;-67
2022/03/16 08:45:03;;;;;;;18.88;9.15;;;;;;;15.92;51.98;102346.47;5110170;28;20043;-67
2022/03/16 08:47:31;;;;;;;15.88;9.18;;;;;;;15.86;51.29;102345.88;5101377;28;20199;-67
2022/03/16 08:49:57;;;;;;;17.48;9.55;;;;;;;16.63;49.71;102354.44;5109019;28;20118;-67
2022/03/16 08:52:24;;;;;;;16.35;8.68;;;;;;;15.18;50.92;102363.16;5109075;28;20109;-68
2022/03/16 08:54:51;;;;;;;18.83;10.45;;;;;;;15.85;50.21;102349.47;5110549;28;20104;-68
2022/03/16 08:57:22;;;;;;;18.88;9.45;;;;;;;15.44;52.02;102360.19;5110449;28;20154;-68
2022/03/16 08:59:49;;;;;;;21.25;9.95;;;;;;;15.06;52.83;102354.00;5109903;28;20123;-68
2022/03/16 09:02:16;;;;;;;19.00;8.93;;;;;;;15.25;52.28;102359.31;5110598;28;20595;-68
2022/03/16 09:04:42;;;;;;;16.80;8.43;;;;;;;14.59;53.47;102369.28;5108145;28;20054;-69
2022/03/16 09:07:09;;;;;;;14.50;8.38;;;;;;;13.88;56.81;102363.44;5095282;28;20133;-70
2022/03/16 09:09:36;;;;;;;13.77;8.80;;;;;;;14.22;57.10;102369.06;5094599;28;20123;-69
2022/03/16 09:12:02;;;;;;;20.73;9.18;;;;;;;13.61;57.90;102374.13;5098405;28;20400;-68
2022/03/16 09:14:30;;;;;;;19.60;8.88;;;;;;;13.57;57.83;102375.16;5099794;28;20043;-68
2022/03/16 09:16:56;;;;;;;20.00;8.68;;;;;;;14.36;56.60;102372.03;5105022;28;20064;-69
2022/03/16 09:19:22;;;;;;;19.02;8.85;;;;;;;14.32;58.05;102367.78;5099026;28;20172;-68
2022/03/16 09:21:49;;;;;;;17.42;9.20;;;;;;;14.19;57.57;102381.53;5098619;28;20445;-69
2022/03/16 09:24:16;;;;;;;20.45;9.30;;;;;;;14.55;55.86;102380.91;5091497;28;20052;-69
2022/03/16 09:26:42;;;;;;;17.90;8.40;;;;;;;14.89;57.90;102376.81;5087768;28;20068;-69
2022/03/16 09:29:09;;;;;;;17.95;9.38;;;;;;;14.57;58.27;102373.75;5086767;28;20047;-69
2022/03/16 09:31:37;;;;;;;20.80;9.43;;;;;;;14.87;57.99;102376.88;5088366;28;20040;-69
2022/03/16 09:34:05;;;;;;;17.30;8.50;;;;;;;15.16;56.87;102378.22;5083096;28;20063;-69
2022/03/16 09:36:31;;;;;;;16.80;8.32;;;;;;;14.35;55.58;102365.03;5091964;28;20560;-68
2022/03/16 09:38:58;;;;;;;18.95;8.93;;;;;;;14.48;55.34;102366.25;5086475;28;20105;-68
2022/03/16 09:41:25;;;;;;;15.00;8.32;;;;;;;14.00;55.04;102370.88;5086566;28;20523;-68
2022/03/16 09:43:52;;;;;;;19.27;8.32;;;;;;;14.22;56.06;102370.84;5094817;28;20089;-69
2022/03/16 09:46:22;;;;;;;14.50;7.53;;;;;;;14.61;54.33;102378.00;5092616;28;20105;-69
2022/03/16 09:48:50;;;;;;;20.40;7.50;;;;;;;14.95;52.81;102374.75;5080078;28;20072;-69
2022/03/16 09:51:18;;;;;;;12.30;7.38;;;;;;;15.06;52.54;102375.13;5100090;28;20124;-69
2022/03/16 09:53:45;;;;;;;16.90;7.95;;;;;;;14.29;54.02;102372.31;5109547;28;20055;-69
2022/03/16 09:56:12;;;;;;;17.52;7.75;;;;;;;14.77;53.85;102369.41;5109522;28;20672;-69
2022/03/16 09:58:39;;;;;;;13.95;8.10;;;;;;;15.74;52.83;102371.13;5108718;28;20134;-69
2022/03/16 10:01:05;;;;;;;30.08;8.57;;;;;;;16.03;54.83;102373.28;5107904;28;20048;-69
2022/03/16 10:03:32;;;;;;;14.05;8.50;;;;;;;15.87;52.06;102374.06;5108925;28;20046;-69
2022/03/16 10:06:00;;;;;;;16.50;8.32;;;;;;;16.74;50.12;102374.09;5106734;28;20263;-68
2022/03/16 10:08:28;;;;;;;17.17;8.60;;;;;;;15.63;50.14;102383.16;5106502;28;20062;-68
2022/03/16 10:13:53;;;;;;;18.10;8.35;;;;;;;16.28;49.39;102367.63;5095994;28;20051;-68
2022/03/16 10:16:19;;;;;;;12.80;7.88;;;;;;;17.02;47.93;102370.88;5104422;28;20051;-68
2022/03/16 10:18:54;;;;;;;13.95;7.93;;;;;;;17.60;46.03;102371.28;5102011;28;20456;-68
2022/03/16 10:21:23;;;;;;;15.55;7.97;;;;;;;17.60;49.24;102373.06;5112665;28;20062;-68
2022/03/16 10:23:49;;;;;;;16.13;8.02;;;;;;;18.22;46.04;102364.19;5113459;28;20380;-69
2022/03/16 10:26:17;;;;;;;15.27;7.70;;;;;;;18.54;44.35;102370.34;5112504;28;20492;-68
2022/03/16 10:28:46;;;;;;;20.50;8.88;;;;;;;18.30;46.23;102368.13;5112306;28;20043;-68
2022/03/16 10:31:15;;;;;;;12.27;7.82;;;;;;;17.83;43.71;102360.25;5104983;28;20047;-69
2022/03/16 10:33:46;;;;;;;16.25;8.15;;;;;;;16.07;47.16;102360.75;5094187;28;20054;-69
2022/03/16 10:36:14;;;;;;;14.45;7.57;;;;;;;16.06;47.42;102353.72;5092741;28;20036;-68
2022/03/16 10:38:44;;;;;;;18.98;8.35;;;;;;;15.52;48.14;102362.53;5101020;28;20437;-68
2022/03/16 10:46:34;;;;;;;12.35;6.70;;;;;;;16.20;48.74;102359.19;5101767;28;20052;-68
2022/03/16 10:46:48;;;;;;;13.50;6.70;;;;;;;17.03;44.88;102352.25;5106743;28;19927;-68
2022/03/16 10:49:16;;;;;;;10.43;6.43;;;;;;;16.75;43.96;102359.94;5096525;28;20633;-68
2022/03/16 10:51:44;;;;;;;14.45;6.65;;;;;;;16.25;45.34;102348.38;5106704;28;20066;-67
2022/03/16 10:54:14;;;;;;;11.18;5.93;;;;;;;16.58;42.94;102354.66;5112601;28;20071;-67
2022/03/16 10:56:41;;;;;;;12.68;5.90;;;;;;;16.53;44.98;102357.50;5112549;28;20116;-67
2022/03/16 10:59:08;;;;;;;11.85;5.90;;;;;;;16.70;43.53;102343.44;5107522;28;20044;-67
2022/03/16 11:01:38;;;;;;;11.13;5.75;;;;;;;17.08;43.74;102349.34;5110549;28;20044;-68
2022/03/16 11:04:05;;;;;;;10.52;5.22;;;;;;;17.34;41.17;102340.00;5111942;28;20040;-68
2022/03/16 11:06:32;;;;;;;11.52;6.28;;;;;;;16.78;42.58;102338.56;5109926;28;20056;-68
2022/03/16 11:08:59;;;;;;;11.90;6.55;;;;;;;16.77;43.63;102341.31;5100973;28;20043;-68
2022/03/16 11:14:12;;;;;;;9.68;5.40;;;;;;;17.10;43.38;102344.84;5097246;28;20059;-68
2022/03/16 11:16:39;;;;;;;12.93;5.82;;;;;;;17.08;42.52;102351.13;5109384;28;20300;-68
2022/03/16 11:19:06;;;;;;;13.40;5.45;;;;;;;17.13;41.16;102352.63;5105319;28;20093;-68
2022/03/16 11:21:45;;;;;;;10.90;5.55;;;;;;;16.78;42.20;102349.16;5111513;28;20039;-68
2022/03/16 11:24:17;;;;;;;13.98;5.22;;;;;;;16.44;42.38;102351.81;5110554;28;20043;-68
2022/03/16 11:27:26;;;;;;;11.73;5.70;;;;;;;16.70;44.40;102354.03;5094548;28;20047;-68